sensor_id;sensor_type;location;lat;lon;timestamp;pressure;altitude;pressure_sealevel;temperature;humidity
41234;BME280;26968;42.686;23.352;2022-07-23T00:01:31;95454.56;;;24.91;43.75
41234;BME280;26968;42.686;23.352;2022-07-23T00:03:56;95450.38;;;24.94;43.75
41234;BME280;26968;42.686;23.352;2022-07-23T00:06:23;95530.72;;;25.41;43.81
41234;BME280;26968;42.686;23.352;2022-07-23T00:08:48;95482.41;;;25.08;43.73
41234;BME280;26968;42.686;23.352;2022-07-23T00:11:14;95514.03;;;25.19;44.06
41234;BME280;26968;42.686;23.352;2022-07-23T00:13:39;95451.81;;;24.72;43.91
41234;BME280;26968;42.686;23.352;2022-07-23T00:16:05;95515.72;;;25.27;44.07
41234;BME280;26968;42.686;23.352;2022-07-23T00:18:31;95431.81;;;24.42;44.50
41234;BME280;26968;42.686;23.352;2022-07-23T00:20:56;95505.94;;;24.84;45.06
41234;BME280;26968;42.686;23.352;2022-07-23T00:23:22;95504.44;;;24.87;44.90
41234;BME280;26968;42.686;23.352;2022-07-23T00:25:47;95503.78;;;24.74;45.15
41234;BME280;26968;42.686;23.352;2022-07-23T00:28:13;95387.69;;;23.71;45.58
41234;BME280;26968;42.686;23.352;2022-07-23T00:30:38;95542.72;;;24.66;45.71
41234;BME280;26968;42.686;23.352;2022-07-23T00:33:06;95501.16;;;24.43;45.79
41234;BME280;26968;42.686;23.352;2022-07-23T00:35:33;95470.50;;;24.39;45.22
41234;BME280;26968;42.686;23.352;2022-07-23T00:38:00;95476.63;;;24.36;45.00
41234;BME280;26968;42.686;23.352;2022-07-23T00:40:26;95394.31;;;23.58;45.06
41234;BME280;26968;42.686;23.352;2022-07-23T00:42:52;95540.59;;;24.56;45.18
41234;BME280;26968;42.686;23.352;2022-07-23T00:45:18;95534.75;;;24.73;44.95
41234;BME280;26968;42.686;23.352;2022-07-23T00:47:44;95540.97;;;24.74;44.50
41234;BME280;26968;42.686;23.352;2022-07-23T00:50:10;95544.50;;;24.58;44.90
41234;BME280;26968;42.686;23.352;2022-07-23T00:52:37;95544.91;;;24.76;43.83
41234;BME280;26968;42.686;23.352;2022-07-23T00:55:03;95501.69;;;24.48;43.28
41234;BME280;26968;42.686;23.352;2022-07-23T00:57:29;95361.13;;;23.61;43.11
41234;BME280;26968;42.686;23.352;2022-07-23T00:59:55;95438.09;;;24.11;42.39
41234;BME280;26968;42.686;23.352;2022-07-23T01:02:21;95462.22;;;24.16;42.33
41234;BME280;26968;42.686;23.352;2022-07-23T01:04:46;95454.53;;;24.18;42.23
41234;BME280;26968;42.686;23.352;2022-07-23T01:07:12;95530.25;;;24.81;42.18
41234;BME280;26968;42.686;23.352;2022-07-23T01:09:37;95532.97;;;24.81;41.82
41234;BME280;26968;42.686;23.352;2022-07-23T01:12:03;95548.13;;;24.82;42.10
41234;BME280;26968;42.686;23.352;2022-07-23T01:14:30;95407.75;;;23.86;42.38
41234;BME280;26968;42.686;23.352;2022-07-23T01:16:55;95532.63;;;24.82;42.13
41234;BME280;26968;42.686;23.352;2022-07-23T01:19:21;95495.34;;;24.60;41.99
41234;BME280;26968;42.686;23.352;2022-07-23T01:21:48;95533.91;;;24.88;42.23
41234;BME280;26968;42.686;23.352;2022-07-23T01:24:14;95524.13;;;24.84;42.01
41234;BME280;26968;42.686;23.352;2022-07-23T01:26:43;95532.97;;;24.81;42.33
41234;BME280;26968;42.686;23.352;2022-07-23T01:29:09;95523.91;;;24.73;42.43
41234;BME280;26968;42.686;23.352;2022-07-23T01:31:35;95508.41;;;24.54;42.62
41234;BME280;26968;42.686;23.352;2022-07-23T01:34:00;95453.28;;;24.31;42.64
41234;BME280;26968;42.686;23.352;2022-07-23T01:36:26;95440.28;;;24.21;42.65
41234;BME280;26968;42.686;23.352;2022-07-23T01:38:53;95499.97;;;24.59;42.69
41234;BME280;26968;42.686;23.352;2022-07-23T01:41:18;95478.50;;;24.00;43.67
41234;BME280;26968;42.686;23.352;2022-07-23T01:43:44;95518.38;;;24.50;43.37
41234;BME280;26968;42.686;23.352;2022-07-23T01:46:10;95526.09;;;24.48;43.38
41234;BME280;26968;42.686;23.352;2022-07-23T01:48:35;95325.78;;;23.23;43.08
41234;BME280;26968;42.686;23.352;2022-07-23T01:51:01;95530.59;;;24.60;43.16
41234;BME280;26968;42.686;23.352;2022-07-23T01:53:26;95520.81;;;24.55;43.60
41234;BME280;26968;42.686;23.352;2022-07-23T01:55:52;95446.94;;;24.08;43.51
41234;BME280;26968;42.686;23.352;2022-07-23T01:58:17;95435.66;;;24.06;43.56
41234;BME280;26968;42.686;23.352;2022-07-23T02:00:43;95451.38;;;24.16;43.55
41234;BME280;26968;42.686;23.352;2022-07-23T02:03:08;95447.72;;;24.08;43.77
41234;BME280;26968;42.686;23.352;2022-07-23T02:05:34;95461.06;;;24.17;43.79
41234;BME280;26968;42.686;23.352;2022-07-23T02:07:59;95492.03;;;24.32;43.84
41234;BME280;26968;42.686;23.352;2022-07-23T02:10:26;95485.72;;;24.12;44.09
41234;BME280;26968;42.686;23.352;2022-07-23T02:12:51;95413.19;;;23.70;44.08
41234;BME280;26968;42.686;23.352;2022-07-23T02:15:17;95393.00;;;23.52;43.97
41234;BME280;26968;42.686;23.352;2022-07-23T02:17:42;95537.47;;;24.38;44.43
41234;BME280;26968;42.686;23.352;2022-07-23T02:20:09;95494.47;;;24.05;44.77
41234;BME280;26968;42.686;23.352;2022-07-23T02:22:35;95450.38;;;23.58;44.96
41234;BME280;26968;42.686;23.352;2022-07-23T02:25:02;95499.28;;;23.96;44.96
41234;BME280;26968;42.686;23.352;2022-07-23T02:27:27;95449.78;;;23.64;45.14
41234;BME280;26968;42.686;23.352;2022-07-23T02:29:53;95474.91;;;23.80;44.81
41234;BME280;26968;42.686;23.352;2022-07-23T02:32:20;95545.09;;;24.01;45.36
41234;BME280;26968;42.686;23.352;2022-07-23T02:34:47;95527.94;;;24.13;44.90
41234;BME280;26968;42.686;23.352;2022-07-23T02:37:13;95477.28;;;23.82;44.76
41234;BME280;26968;42.686;23.352;2022-07-23T02:39:38;95466.97;;;23.56;45.07
41234;BME280;26968;42.686;23.352;2022-07-23T02:42:04;95538.88;;;24.01;45.16
41234;BME280;26968;42.686;23.352;2022-07-23T02:44:29;95313.84;;;22.49;45.01
41234;BME280;26968;42.686;23.352;2022-07-23T02:46:55;95448.16;;;23.32;45.04
41234;BME280;26968;42.686;23.352;2022-07-23T02:49:20;95380.72;;;22.67;45.53
41234;BME280;26968;42.686;23.352;2022-07-23T02:51:45;95527.88;;;23.78;45.54
41234;BME280;26968;42.686;23.352;2022-07-23T02:54:11;95220.50;;;21.68;45.90
41234;BME280;26968;42.686;23.352;2022-07-23T02:56:36;95453.06;;;23.26;45.77
41234;BME280;26968;42.686;23.352;2022-07-23T02:59:02;95482.84;;;23.42;45.96
41234;BME280;26968;42.686;23.352;2022-07-23T03:01:27;95447.34;;;23.16;45.79
41234;BME280;26968;42.686;23.352;2022-07-23T03:03:53;95459.97;;;23.12;46.32
41234;BME280;26968;42.686;23.352;2022-07-23T03:06:18;95445.59;;;23.07;46.15
41234;BME280;26968;42.686;23.352;2022-07-23T03:08:43;95543.59;;;23.72;46.16
41234;BME280;26968;42.686;23.352;2022-07-23T03:11:09;95536.47;;;22.96;47.21
41234;BME280;26968;42.686;23.352;2022-07-23T03:13:37;95511.69;;;22.94;47.09
41234;BME280;26968;42.686;23.352;2022-07-23T03:16:03;95452.25;;;22.70;46.96
41234;BME280;26968;42.686;23.352;2022-07-23T03:18:29;95488.75;;;23.04;46.69
41234;BME280;26968;42.686;23.352;2022-07-23T03:20:54;95544.88;;;23.35;46.72
41234;BME280;26968;42.686;23.352;2022-07-23T03:23:20;95572.84;;;23.39;47.05
41234;BME280;26968;42.686;23.352;2022-07-23T03:25:45;95495.34;;;22.91;46.94
41234;BME280;26968;42.686;23.352;2022-07-23T03:28:14;95494.69;;;22.94;46.93
41234;BME280;26968;42.686;23.352;2022-07-23T03:30:41;95578.78;;;23.17;47.71
41234;BME280;26968;42.686;23.352;2022-07-23T03:33:07;95561.97;;;22.95;47.85
41234;BME280;26968;42.686;23.352;2022-07-23T03:35:32;95485.63;;;22.62;47.59
41234;BME280;26968;42.686;23.352;2022-07-23T03:37:58;95515.22;;;22.83;47.18
41234;BME280;26968;42.686;23.352;2022-07-23T03:40:23;95550.16;;;23.16;47.26
41234;BME280;26968;42.686;23.352;2022-07-23T03:42:48;95498.31;;;22.86;46.97
41234;BME280;26968;42.686;23.352;2022-07-23T03:45:14;95565.25;;;23.17;47.27
41234;BME280;26968;42.686;23.352;2022-07-23T03:47:39;95300.06;;;21.22;47.85
41234;BME280;26968;42.686;23.352;2022-07-23T03:50:06;95532.94;;;22.80;47.27
41234;BME280;26968;42.686;23.352;2022-07-23T03:52:31;95546.28;;;22.89;46.95
41234;BME280;26968;42.686;23.352;2022-07-23T03:54:57;95541.44;;;22.94;46.97
41234;BME280;26968;42.686;23.352;2022-07-23T03:57:22;95566.28;;;23.12;46.85
41234;BME280;26968;42.686;23.352;2022-07-23T03:59:48;95452.00;;;22.47;46.42
41234;BME280;26968;42.686;23.352;2022-07-23T04:02:13;95587.34;;;23.19;46.66
41234;BME280;26968;42.686;23.352;2022-07-23T04:04:39;95272.84;;;21.39;46.67
41234;BME280;26968;42.686;23.352;2022-07-23T04:07:04;95517.16;;;23.10;46.72
41234;BME280;26968;42.686;23.352;2022-07-23T04:09:29;95507.28;;;23.02;46.69
41234;BME280;26968;42.686;23.352;2022-07-23T04:11:55;95586.88;;;23.57;46.93
41234;BME280;26968;42.686;23.352;2022-07-23T04:14:20;95586.81;;;23.69;46.40
41234;BME280;26968;42.686;23.352;2022-07-23T04:16:46;95368.81;;;22.41;45.64
41234;BME280;26968;42.686;23.352;2022-07-23T04:19:11;95429.72;;;22.78;45.83
41234;BME280;26968;42.686;23.352;2022-07-23T04:21:37;95586.22;;;23.91;45.77
41234;BME280;26968;42.686;23.352;2022-07-23T04:24:02;95539.66;;;23.70;45.69
41234;BME280;26968;42.686;23.352;2022-07-23T04:26:28;95572.00;;;23.78;45.69
41234;BME280;26968;42.686;23.352;2022-07-23T04:28:53;95558.31;;;23.31;46.33
41234;BME280;26968;42.686;23.352;2022-07-23T04:31:19;95497.50;;;23.13;46.02
41234;BME280;26968;42.686;23.352;2022-07-23T04:33:44;95550.97;;;23.60;45.49
41234;BME280;26968;42.686;23.352;2022-07-23T04:36:10;95521.16;;;23.44;45.81
41234;BME280;26968;42.686;23.352;2022-07-23T04:38:35;95485.25;;;23.31;46.13
41234;BME280;26968;42.686;23.352;2022-07-23T04:41:00;95525.50;;;23.61;45.36
41234;BME280;26968;42.686;23.352;2022-07-23T04:43:26;95404.78;;;22.85;45.07
41234;BME280;26968;42.686;23.352;2022-07-23T04:45:52;95557.72;;;23.81;45.43
41234;BME280;26968;42.686;23.352;2022-07-23T04:48:17;95562.28;;;23.93;45.05
41234;BME280;26968;42.686;23.352;2022-07-23T04:50:43;95601.19;;;24.16;44.79
41234;BME280;26968;42.686;23.352;2022-07-23T04:53:08;95129.03;;;21.10;44.94
41234;BME280;26968;42.686;23.352;2022-07-23T04:55:34;95271.03;;;21.95;44.10
41234;BME280;26968;42.686;23.352;2022-07-23T04:57:59;95593.63;;;24.22;44.19
41234;BME280;26968;42.686;23.352;2022-07-23T05:00:24;95316.34;;;22.42;44.39
41234;BME280;26968;42.686;23.352;2022-07-23T05:02:50;95500.97;;;23.69;44.50
41234;BME280;26968;42.686;23.352;2022-07-23T05:05:15;95522.78;;;23.76;44.80
41234;BME280;26968;42.686;23.352;2022-07-23T05:07:41;95403.00;;;23.04;44.26
41234;BME280;26968;42.686;23.352;2022-07-23T05:10:06;95557.31;;;23.95;43.96
41234;BME280;26968;42.686;23.352;2022-07-23T05:12:32;95611.97;;;24.29;44.01
41234;BME280;26968;42.686;23.352;2022-07-23T05:14:58;95549.72;;;24.01;43.81
41234;BME280;26968;42.686;23.352;2022-07-23T05:17:23;95528.38;;;23.99;43.53
41234;BME280;26968;42.686;23.352;2022-07-23T05:19:48;95607.50;;;24.52;43.88
41234;BME280;26968;42.686;23.352;2022-07-23T05:22:14;95548.81;;;24.12;43.96
41234;BME280;26968;42.686;23.352;2022-07-23T05:24:39;95425.72;;;23.47;43.47
41234;BME280;26968;42.686;23.352;2022-07-23T05:27:05;95573.16;;;24.40;43.50
41234;BME280;26968;42.686;23.352;2022-07-23T05:29:30;95502.94;;;24.04;43.88
41234;BME280;26968;42.686;23.352;2022-07-23T05:31:56;95544.72;;;24.34;44.04
41234;BME280;26968;42.686;23.352;2022-07-23T05:34:21;95484.75;;;24.04;44.06
41234;BME280;26968;42.686;23.352;2022-07-23T05:36:46;95577.38;;;24.57;43.47
41234;BME280;26968;42.686;23.352;2022-07-23T05:39:14;95609.56;;;24.74;43.62
41234;BME280;26968;42.686;23.352;2022-07-23T05:41:39;95570.59;;;24.47;43.21
41234;BME280;26968;42.686;23.352;2022-07-23T05:44:05;95594.25;;;24.66;43.81
41234;BME280;26968;42.686;23.352;2022-07-23T05:46:30;95543.25;;;24.37;42.96
41234;BME280;26968;42.686;23.352;2022-07-23T05:48:55;95510.25;;;24.19;42.56
41234;BME280;26968;42.686;23.352;2022-07-23T05:51:22;95611.63;;;24.81;42.40
41234;BME280;26968;42.686;23.352;2022-07-23T05:53:48;95560.06;;;24.61;42.18
41234;BME280;26968;42.686;23.352;2022-07-23T05:56:14;95525.69;;;24.31;41.93
41234;BME280;26968;42.686;23.352;2022-07-23T05:58:39;95580.00;;;24.69;41.93
41234;BME280;26968;42.686;23.352;2022-07-23T06:01:04;95577.72;;;24.71;41.92
41234;BME280;26968;42.686;23.352;2022-07-23T06:03:30;95606.94;;;24.93;42.24
41234;BME280;26968;42.686;23.352;2022-07-23T06:05:55;95453.38;;;24.19;41.84
41234;BME280;26968;42.686;23.352;2022-07-23T06:08:21;95518.13;;;24.55;42.28
41234;BME280;26968;42.686;23.352;2022-07-23T06:10:46;95532.34;;;24.87;42.38
41234;BME280;26968;42.686;23.352;2022-07-23T06:13:12;95547.75;;;24.99;42.88
41234;BME280;26968;42.686;23.352;2022-07-23T06:15:37;95583.25;;;25.29;42.64
41234;BME280;26968;42.686;23.352;2022-07-23T06:18:03;95503.53;;;24.79;42.22
41234;BME280;26968;42.686;23.352;2022-07-23T06:20:28;95609.66;;;25.51;41.83
41234;BME280;26968;42.686;23.352;2022-07-23T06:22:54;95509.88;;;24.87;42.24
41234;BME280;26968;42.686;23.352;2022-07-23T06:25:19;95576.94;;;25.44;41.98
41234;BME280;26968;42.686;23.352;2022-07-23T06:27:46;95452.59;;;24.73;42.40
41234;BME280;26968;42.686;23.352;2022-07-23T06:30:12;95446.19;;;24.61;42.06
41234;BME280;26968;42.686;23.352;2022-07-23T06:32:38;95529.50;;;25.19;41.28
41234;BME280;26968;42.686;23.352;2022-07-23T06:35:03;95563.84;;;25.50;41.84
41234;BME280;26968;42.686;23.352;2022-07-23T06:37:29;95542.00;;;25.43;41.58
41234;BME280;26968;42.686;23.352;2022-07-23T06:39:54;95565.66;;;25.61;41.70
41234;BME280;26968;42.686;23.352;2022-07-23T06:42:21;95553.72;;;25.47;41.31
41234;BME280;26968;42.686;23.352;2022-07-23T06:44:46;95537.00;;;25.45;41.27
41234;BME280;26968;42.686;23.352;2022-07-23T06:47:11;95559.94;;;25.66;40.84
41234;BME280;26968;42.686;23.352;2022-07-23T06:49:37;95530.56;;;25.53;40.21
41234;BME280;26968;42.686;23.352;2022-07-23T06:52:02;95520.63;;;25.41;40.11
41234;BME280;26968;42.686;23.352;2022-07-23T06:54:28;95546.47;;;25.73;40.06
41234;BME280;26968;42.686;23.352;2022-07-23T06:56:53;95541.84;;;25.74;39.82
41234;BME280;26968;42.686;23.352;2022-07-23T06:59:19;95567.50;;;25.99;39.30
41234;BME280;26968;42.686;23.352;2022-07-23T07:01:44;95480.81;;;25.49;40.00
41234;BME280;26968;42.686;23.352;2022-07-23T07:04:10;95520.78;;;25.90;39.96
41234;BME280;26968;42.686;23.352;2022-07-23T07:06:35;95560.41;;;26.18;39.42
41234;BME280;26968;42.686;23.352;2022-07-23T07:09:01;95507.53;;;25.89;39.41
41234;BME280;26968;42.686;23.352;2022-07-23T07:11:26;95566.53;;;26.34;38.94
41234;BME280;26968;42.686;23.352;2022-07-23T07:13:52;95576.66;;;26.60;38.85
41234;BME280;26968;42.686;23.352;2022-07-23T07:16:17;95527.59;;;26.26;38.65
41234;BME280;26968;42.686;23.352;2022-07-23T07:18:43;95587.25;;;26.42;38.60
41234;BME280;26968;42.686;23.352;2022-07-23T07:21:08;95581.34;;;26.36;38.68
41234;BME280;26968;42.686;23.352;2022-07-23T07:23:34;95482.75;;;25.48;39.17
41234;BME280;26968;42.686;23.352;2022-07-23T07:25:59;95551.88;;;26.16;39.14
41234;BME280;26968;42.686;23.352;2022-07-23T07:28:25;95440.22;;;25.56;39.44
41234;BME280;26968;42.686;23.352;2022-07-23T07:30:50;95570.44;;;26.59;39.02
41234;BME280;26968;42.686;23.352;2022-07-23T07:33:16;95488.31;;;26.24;38.78
41234;BME280;26968;42.686;23.352;2022-07-23T07:35:41;95567.31;;;26.87;39.24
41234;BME280;26968;42.686;23.352;2022-07-23T07:38:06;95559.59;;;26.89;39.26
41234;BME280;26968;42.686;23.352;2022-07-23T07:40:32;95475.31;;;26.36;38.49
41234;BME280;26968;42.686;23.352;2022-07-23T07:42:58;95518.19;;;26.46;38.69
41234;BME280;26968;42.686;23.352;2022-07-23T07:45:24;95426.94;;;25.96;37.82
41234;BME280;26968;42.686;23.352;2022-07-23T07:47:51;95564.88;;;27.05;37.94
41234;BME280;26968;42.686;23.352;2022-07-23T07:50:18;95482.44;;;26.48;38.30
41234;BME280;26968;42.686;23.352;2022-07-23T07:52:43;95549.28;;;27.02;37.85
41234;BME280;26968;42.686;23.352;2022-07-23T07:55:10;95460.78;;;26.55;37.72
41234;BME280;26968;42.686;23.352;2022-07-23T07:57:36;95510.09;;;27.10;37.23
41234;BME280;26968;42.686;23.352;2022-07-23T08:00:03;95547.06;;;27.44;36.83
41234;BME280;26968;42.686;23.352;2022-07-23T08:02:29;95513.47;;;27.30;37.17
41234;BME280;26968;42.686;23.352;2022-07-23T08:04:54;95505.88;;;27.12;36.79
41234;BME280;26968;42.686;23.352;2022-07-23T08:07:22;95527.66;;;27.16;36.29
41234;BME280;26968;42.686;23.352;2022-07-23T08:09:47;95520.25;;;27.46;36.02
41234;BME280;26968;42.686;23.352;2022-07-23T08:12:13;95529.59;;;27.45;35.58
41234;BME280;26968;42.686;23.352;2022-07-23T08:14:38;95497.84;;;27.26;36.43
41234;BME280;26968;42.686;23.352;2022-07-23T08:17:04;95504.66;;;27.43;35.76
41234;BME280;26968;42.686;23.352;2022-07-23T08:19:29;95475.78;;;27.35;35.90
41234;BME280;26968;42.686;23.352;2022-07-23T08:21:55;95457.44;;;27.32;35.96
41234;BME280;26968;42.686;23.352;2022-07-23T08:24:20;95548.38;;;27.91;35.35
41234;BME280;26968;42.686;23.352;2022-07-23T08:26:45;95495.16;;;27.63;34.84
41234;BME280;26968;42.686;23.352;2022-07-23T08:29:11;95503.72;;;27.65;35.35
41234;BME280;26968;42.686;23.352;2022-07-23T08:31:36;95536.63;;;27.83;35.57
41234;BME280;26968;42.686;23.352;2022-07-23T08:34:02;95490.72;;;27.52;35.10
41234;BME280;26968;42.686;23.352;2022-07-23T08:36:28;95450.47;;;27.35;35.54
41234;BME280;26968;42.686;23.352;2022-07-23T08:38:58;95467.81;;;27.53;35.05
41234;BME280;26968;42.686;23.352;2022-07-23T08:41:24;95442.16;;;27.57;35.06
41234;BME280;26968;42.686;23.352;2022-07-23T08:43:49;95534.69;;;28.28;34.54
41234;BME280;26968;42.686;23.352;2022-07-23T08:46:17;95509.22;;;28.13;34.55
41234;BME280;26968;42.686;23.352;2022-07-23T08:48:48;95526.50;;;28.28;34.35
41234;BME280;26968;42.686;23.352;2022-07-23T08:51:14;95506.53;;;28.17;34.45
41234;BME280;26968;42.686;23.352;2022-07-23T08:53:40;95386.53;;;27.62;34.31
41234;BME280;26968;42.686;23.352;2022-07-23T08:56:08;95464.44;;;28.14;34.06
41234;BME280;26968;42.686;23.352;2022-07-23T08:58:34;95358.56;;;27.65;34.67
41234;BME280;26968;42.686;23.352;2022-07-23T09:01:00;95515.53;;;28.75;34.14
41234;BME280;26968;42.686;23.352;2022-07-23T09:03:31;95405.22;;;28.15;34.33
41234;BME280;26968;42.686;23.352;2022-07-23T09:05:57;95517.19;;;28.91;34.09
41234;BME280;26968;42.686;23.352;2022-07-23T09:08:25;95484.78;;;28.82;34.04
41234;BME280;26968;42.686;23.352;2022-07-23T09:10:58;95510.97;;;29.01;33.90
41234;BME280;26968;42.686;23.352;2022-07-23T09:13:53;95505.19;;;29.13;33.76
41234;BME280;26968;42.686;23.352;2022-07-23T09:16:24;95508.25;;;29.08;33.95
41234;BME280;26968;42.686;23.352;2022-07-23T09:18:56;95511.47;;;29.28;33.41
41234;BME280;26968;42.686;23.352;2022-07-23T09:31:27;95509.63;;;29.64;32.02
41234;BME280;26968;42.686;23.352;2022-07-23T09:36:40;95456.09;;;29.45;32.59
41234;BME280;26968;42.686;23.352;2022-07-23T09:39:07;95422.47;;;29.23;30.73
41234;BME280;26968;42.686;23.352;2022-07-23T09:41:39;95493.63;;;29.76;30.57
41234;BME280;26968;42.686;23.352;2022-07-23T09:44:10;95388.53;;;29.13;30.71
41234;BME280;26968;42.686;23.352;2022-07-23T09:46:36;95440.13;;;29.54;29.17
41234;BME280;26968;42.686;23.352;2022-07-23T09:49:10;95411.63;;;29.48;29.13
41234;BME280;26968;42.686;23.352;2022-07-23T09:51:56;95480.81;;;30.19;28.94
41234;BME280;26968;42.686;23.352;2022-07-23T09:56:56;95370.84;;;30.74;27.17
41234;BME280;26968;42.686;23.352;2022-07-23T09:59:27;95388.22;;;31.74;24.76
41234;BME280;26968;42.686;23.352;2022-07-23T10:01:55;95417.03;;;33.09;23.87
41234;BME280;26968;42.686;23.352;2022-07-23T10:04:23;95413.47;;;33.93;22.09
41234;BME280;26968;42.686;23.352;2022-07-23T10:06:55;95397.31;;;34.81;22.25
41234;BME280;26968;42.686;23.352;2022-07-23T10:09:27;95461.63;;;36.02;20.64
41234;BME280;26968;42.686;23.352;2022-07-23T10:11:56;95457.47;;;36.88;19.49
41234;BME280;26968;42.686;23.352;2022-07-23T10:14:25;95392.22;;;37.19;18.89
41234;BME280;26968;42.686;23.352;2022-07-23T10:16:51;95411.03;;;37.88;18.67
41234;BME280;26968;42.686;23.352;2022-07-23T10:19:17;95389.78;;;37.46;18.30
41234;BME280;26968;42.686;23.352;2022-07-23T10:30:10;95432.44;;;39.03;16.99
41234;BME280;26968;42.686;23.352;2022-07-23T10:35:43;95442.25;;;39.79;15.79
41234;BME280;26968;42.686;23.352;2022-07-23T10:41:05;95428.47;;;40.15;15.45
41234;BME280;26968;42.686;23.352;2022-07-23T10:43:31;95373.69;;;40.06;15.90
41234;BME280;26968;42.686;23.352;2022-07-23T10:49:35;95417.78;;;40.72;15.25
41234;BME280;26968;42.686;23.352;2022-07-23T10:52:20;95419.22;;;40.18;15.54
41234;BME280;26968;42.686;23.352;2022-07-23T10:54:48;95405.94;;;39.33;15.25
41234;BME280;26968;42.686;23.352;2022-07-23T10:57:15;95370.44;;;39.19;15.34
41234;BME280;26968;42.686;23.352;2022-07-23T11:02:38;95350.25;;;39.49;15.17
41234;BME280;26968;42.686;23.352;2022-07-23T11:05:14;95406.44;;;39.71;14.30
41234;BME280;26968;42.686;23.352;2022-07-23T11:10:34;95345.03;;;39.20;13.75
41234;BME280;26968;42.686;23.352;2022-07-23T11:24:18;95383.63;;;39.77;12.14
41234;BME280;26968;42.686;23.352;2022-07-23T11:26:52;95352.00;;;39.74;12.47
41234;BME280;26968;42.686;23.352;2022-07-23T11:37:08;95326.47;;;39.97;11.80
41234;BME280;26968;42.686;23.352;2022-07-23T11:39:35;95300.91;;;39.53;11.68
41234;BME280;26968;42.686;23.352;2022-07-23T11:42:03;95335.75;;;39.54;11.58
41234;BME280;26968;42.686;23.352;2022-07-23T11:44:35;95313.13;;;39.65;11.47
41234;BME280;26968;42.686;23.352;2022-07-23T11:47:05;95353.94;;;39.95;11.76
41234;BME280;26968;42.686;23.352;2022-07-23T11:49:31;95340.03;;;39.46;11.66
41234;BME280;26968;42.686;23.352;2022-07-23T11:54:31;95351.16;;;39.46;11.74
41234;BME280;26968;42.686;23.352;2022-07-23T11:57:01;95291.72;;;39.74;11.58
41234;BME280;26968;42.686;23.352;2022-07-23T11:59:30;95325.56;;;40.46;11.28
41234;BME280;26968;42.686;23.352;2022-07-23T12:02:00;95290.25;;;40.28;10.51
41234;BME280;26968;42.686;23.352;2022-07-23T12:04:39;95351.47;;;40.06;10.35
41234;BME280;26968;42.686;23.352;2022-07-23T12:07:31;95325.09;;;40.02;10.72
41234;BME280;26968;42.686;23.352;2022-07-23T12:09:59;95317.22;;;40.19;10.73
41234;BME280;26968;42.686;23.352;2022-07-23T12:12:25;95342.22;;;40.09;11.85
41234;BME280;26968;42.686;23.352;2022-07-23T12:14:56;95151.59;;;39.03;11.97
41234;BME280;26968;42.686;23.352;2022-07-23T12:17:28;95324.00;;;40.45;11.23
41234;BME280;26968;42.686;23.352;2022-07-23T12:19:55;95313.16;;;40.93;11.12
41234;BME280;26968;42.686;23.352;2022-07-23T12:22:23;95335.94;;;41.24;10.68
41234;BME280;26968;42.686;23.352;2022-07-23T12:24:59;95306.06;;;40.82;10.38
41234;BME280;26968;42.686;23.352;2022-07-23T12:27:26;95311.88;;;41.12;10.62
41234;BME280;26968;42.686;23.352;2022-07-23T12:29:52;95320.81;;;41.58;11.09
41234;BME280;26968;42.686;23.352;2022-07-23T12:32:28;95318.59;;;41.95;10.78
41234;BME280;26968;42.686;23.352;2022-07-23T12:35:08;95315.97;;;42.30;10.78
41234;BME280;26968;42.686;23.352;2022-07-23T12:37:35;95293.44;;;42.43;11.25
41234;BME280;26968;42.686;23.352;2022-07-23T12:40:22;95314.31;;;42.47;11.21
41234;BME280;26968;42.686;23.352;2022-07-23T12:42:49;95284.00;;;42.25;10.98
41234;BME280;26968;42.686;23.352;2022-07-23T12:45:16;95311.63;;;42.67;10.43
41234;BME280;26968;42.686;23.352;2022-07-23T12:50:32;95305.38;;;41.81;10.59
41234;BME280;26968;42.686;23.352;2022-07-23T12:56:07;95299.19;;;41.77;11.08
41234;BME280;26968;42.686;23.352;2022-07-23T13:01:36;95264.75;;;41.89;10.21
41234;BME280;26968;42.686;23.352;2022-07-23T13:04:19;95242.16;;;41.72;10.01
41234;BME280;26968;42.686;23.352;2022-07-23T13:06:51;95277.63;;;41.63;9.07
41234;BME280;26968;42.686;23.352;2022-07-23T13:09:20;95225.34;;;41.01;9.03
41234;BME280;26968;42.686;23.352;2022-07-23T13:11:47;95190.25;;;40.01;9.86
41234;BME280;26968;42.686;23.352;2022-07-23T13:14:14;95282.81;;;40.43;10.03
41234;BME280;26968;42.686;23.352;2022-07-23T13:16:41;95289.56;;;41.21;9.80
41234;BME280;26968;42.686;23.352;2022-07-23T13:19:07;95242.91;;;41.73;9.88
41234;BME280;26968;42.686;23.352;2022-07-23T13:21:33;95200.81;;;40.90;10.02
41234;BME280;26968;42.686;23.352;2022-07-23T13:23:58;95297.00;;;40.73;9.68
41234;BME280;26968;42.686;23.352;2022-07-23T13:26:25;95288.00;;;41.62;9.87
41234;BME280;26968;42.686;23.352;2022-07-23T13:28:51;95288.88;;;42.16;9.19
41234;BME280;26968;42.686;23.352;2022-07-23T13:31:18;95290.38;;;42.55;9.87
41234;BME280;26968;42.686;23.352;2022-07-23T13:33:43;95261.50;;;42.29;9.09
41234;BME280;26968;42.686;23.352;2022-07-23T13:36:09;95203.69;;;41.38;8.85
41234;BME280;26968;42.686;23.352;2022-07-23T13:38:35;95194.63;;;41.76;8.86
41234;BME280;26968;42.686;23.352;2022-07-23T13:41:01;95233.00;;;42.34;8.40
41234;BME280;26968;42.686;23.352;2022-07-23T13:43:30;95281.44;;;43.10;8.22
41234;BME280;26968;42.686;23.352;2022-07-23T13:45:56;95161.94;;;42.73;8.44
41234;BME280;26968;42.686;23.352;2022-07-23T13:48:21;95237.84;;;43.12;8.65
41234;BME280;26968;42.686;23.352;2022-07-23T13:50:48;95225.47;;;42.11;8.86
41234;BME280;26968;42.686;23.352;2022-07-23T13:53:16;95148.50;;;41.36;9.64
41234;BME280;26968;42.686;23.352;2022-07-23T13:55:42;95236.16;;;41.65;9.47
41234;BME280;26968;42.686;23.352;2022-07-23T13:58:09;95248.13;;;42.04;9.48